Pierron, Illinois
Current Conditions -  °F | °C
As of 8:58 PM on Wednesday 22 Oct 2014 (Local Time) from KBLV Reporting Station
Clear Clear  
Wind Chill: 47°   Ceiling: Unl
Heat Index: 47°   Visibility: 7mi
Dew Point: 42°   Wind: 0mph
Humidity: 81%   Direction: NA
Pressure: 30.23"   Gusts: NA
Location:  38.78°N, 89.6°W
Report Text: KBLV 230158Z AUTO 00000KT 7SM CLR 08/05 A3023 RMK AO2 SLP242 T00830053 $
Loading
Personal Weather Stations






























Interactive Weather Map
Tropical Storm Tracking
New forecast layout! Learn more

10-Day Weather Forecast

Advertisements
Track Severe Weather on mobile